sensor_id;sensor_type;location;lat;lon;timestamp;pressure;altitude;pressure_sealevel;temperature;humidity
44765;BME280;30484;52.382;5.260;2023-02-28T00:00:37;103311.94;;;6.96;100.00
44765;BME280;30484;52.382;5.260;2023-02-28T00:03:07;103321.72;;;7.07;100.00
44765;BME280;30484;52.382;5.260;2023-02-28T00:05:35;103314.63;;;7.06;100.00
44765;BME280;30484;52.382;5.260;2023-02-28T00:08:05;103311.03;;;6.98;100.00
44765;BME280;30484;52.382;5.260;2023-02-28T00:10:34;103314.59;;;7.03;100.00
44765;BME280;30484;52.382;5.260;2023-02-28T00:13:05;103319.09;;;7.17;100.00
44765;BME280;30484;52.382;5.260;2023-02-28T00:15:37;103324.41;;;7.17;100.00
44765;BME280;30484;52.382;5.260;2023-02-28T00:18:07;103319.13;;;7.28;100.00
44765;BME280;30484;52.382;5.260;2023-02-28T00:20:36;103314.72;;;7.31;100.00
44765;BME280;30484;52.382;5.260;2023-02-28T00:23:05;103320.06;;;7.39;100.00
44765;BME280;30484;52.382;5.260;2023-02-28T00:25:34;103321.84;;;7.38;100.00
44765;BME280;30484;52.382;5.260;2023-02-28T00:28:04;103318.25;;;7.27;100.00
44765;BME280;30484;52.382;5.260;2023-02-28T00:30:34;103311.22;;;7.45;100.00
44765;BME280;30484;52.382;5.260;2023-02-28T00:33:08;103310.34;;;7.49;100.00
44765;BME280;30484;52.382;5.260;2023-02-28T00:35:37;103317.41;;;7.47;100.00
44765;BME280;30484;52.382;5.260;2023-02-28T00:38:06;103318.28;;;7.39;100.00
44765;BME280;30484;52.382;5.260;2023-02-28T00:40:37;103317.41;;;7.34;100.00
44765;BME280;30484;52.382;5.260;2023-02-28T00:43:07;103314.75;;;7.47;100.00
44765;BME280;30484;52.382;5.260;2023-02-28T00:45:37;103324.53;;;7.55;100.00
44765;BME280;30484;52.382;5.260;2023-02-28T00:48:08;103312.94;;;7.36;100.00
44765;BME280;30484;52.382;5.260;2023-02-28T00:50:37;103312.13;;;7.50;100.00
44765;BME280;30484;52.382;5.260;2023-02-28T00:53:17;103308.53;;;7.40;100.00
44765;BME280;30484;52.382;5.260;2023-02-28T00:55:45;103310.34;;;7.58;100.00
44765;BME280;30484;52.382;5.260;2023-02-28T00:58:14;103311.22;;;7.51;100.00
44765;BME280;30484;52.382;5.260;2023-02-28T01:00:44;103310.31;;;7.42;100.00
44765;BME280;30484;52.382;5.260;2023-02-28T01:03:18;103305.00;;;7.44;100.00
44765;BME280;30484;52.382;5.260;2023-02-28T01:05:47;103305.88;;;7.52;100.00
44765;BME280;30484;52.382;5.260;2023-02-28T01:08:25;103309.41;;;7.43;100.00
44765;BME280;30484;52.382;5.260;2023-02-28T01:10:56;103302.38;;;7.66;100.00
44765;BME280;30484;52.382;5.260;2023-02-28T01:13:25;103304.13;;;7.64;100.00
44765;BME280;30484;52.382;5.260;2023-02-28T01:15:55;103307.72;;;7.70;100.00
44765;BME280;30484;52.382;5.260;2023-02-28T01:18:28;103307.69;;;7.56;100.00
44765;BME280;30484;52.382;5.260;2023-02-28T01:21:03;103297.94;;;7.72;100.00
44765;BME280;30484;52.382;5.260;2023-02-28T01:23:34;103304.16;;;7.79;100.00
44765;BME280;30484;52.382;5.260;2023-02-28T01:26:06;103302.38;;;7.72;100.00
44765;BME280;30484;52.382;5.260;2023-02-28T01:28:35;103302.38;;;7.72;100.00
44765;BME280;30484;52.382;5.260;2023-02-28T01:31:05;103299.72;;;7.76;100.00
44765;BME280;30484;52.382;5.260;2023-02-28T01:33:39;103292.63;;;7.82;100.00
44765;BME280;30484;52.382;5.260;2023-02-28T01:36:10;103289.97;;;7.72;100.00
44765;BME280;30484;52.382;5.260;2023-02-28T01:38:41;103289.06;;;7.76;100.00
44765;BME280;30484;52.382;5.260;2023-02-28T01:41:14;103290.84;;;7.82;100.00
44765;BME280;30484;52.382;5.260;2023-02-28T01:43:56;103289.97;;;7.85;100.00
44765;BME280;30484;52.382;5.260;2023-02-28T01:46:25;103291.75;;;7.83;100.00
44765;BME280;30484;52.382;5.260;2023-02-28T01:48:58;103292.63;;;7.86;100.00
44765;BME280;30484;52.382;5.260;2023-02-28T01:51:31;103282.91;;;7.85;100.00
44765;BME280;30484;52.382;5.260;2023-02-28T01:54:03;103280.22;;;7.90;100.00
44765;BME280;30484;52.382;5.260;2023-02-28T01:56:34;103284.69;;;7.91;100.00
44765;BME280;30484;52.382;5.260;2023-02-28T01:59:05;103282.91;;;7.90;100.00
44765;BME280;30484;52.382;5.260;2023-02-28T02:01:34;103281.09;;;7.89;100.00
44765;BME280;30484;52.382;5.260;2023-02-28T02:04:06;103281.97;;;7.89;100.00
44765;BME280;30484;52.382;5.260;2023-02-28T02:06:39;103269.59;;;7.85;100.00
44765;BME280;30484;52.382;5.260;2023-02-28T02:09:09;103274.88;;;7.79;100.00
44765;BME280;30484;52.382;5.260;2023-02-28T02:11:39;103269.59;;;7.88;100.00
44765;BME280;30484;52.382;5.260;2023-02-28T02:14:30;103266.91;;;7.93;100.00
44765;BME280;30484;52.382;5.260;2023-02-28T02:17:10;103268.69;;;7.88;100.00
44765;BME280;30484;52.382;5.260;2023-02-28T02:26:12;103266.91;;;7.90;100.00
44765;BME280;30484;52.382;5.260;2023-02-28T02:29:15;103275.78;;;7.92;100.00
44765;BME280;30484;52.382;5.260;2023-02-28T02:32:20;103268.69;;;7.94;100.00
44765;BME280;30484;52.382;5.260;2023-02-28T02:34:59;103269.56;;;7.93;100.00
44765;BME280;30484;52.382;5.260;2023-02-28T02:37:34;103272.22;;;7.96;100.00
44765;BME280;30484;52.382;5.260;2023-02-28T02:40:11;103263.38;;;7.91;100.00
44765;BME280;30484;52.382;5.260;2023-02-28T02:42:47;103269.56;;;7.94;100.00
44765;BME280;30484;52.382;5.260;2023-02-28T02:45:22;103277.56;;;7.88;100.00
44765;BME280;30484;52.382;5.260;2023-02-28T02:47:58;103282.00;;;7.94;100.00
44765;BME280;30484;52.382;5.260;2023-02-28T02:50:31;103274.00;;;7.97;100.00
44765;BME280;30484;52.382;5.260;2023-02-28T02:53:04;103278.44;;;7.90;100.00
44765;BME280;30484;52.382;5.260;2023-02-28T02:55:37;103274.03;;;7.91;100.00
44765;BME280;30484;52.382;5.260;2023-02-28T02:58:10;103281.09;;;7.95;100.00
44765;BME280;30484;52.382;5.260;2023-02-28T03:00:42;103272.22;;;7.96;100.00
44765;BME280;30484;52.382;5.260;2023-02-28T03:03:14;103269.56;;;7.94;100.00
44765;BME280;30484;52.382;5.260;2023-02-28T03:06:01;103269.59;;;7.87;100.00
44765;BME280;30484;52.382;5.260;2023-02-28T03:08:34;103275.78;;;7.69;100.00
44765;BME280;30484;52.382;5.260;2023-02-28T03:11:05;103282.00;;;7.80;100.00
44765;BME280;30484;52.382;5.260;2023-02-28T03:13:51;103265.13;;;7.67;100.00
44765;BME280;30484;52.382;5.260;2023-02-28T03:16:32;103270.44;;;7.55;100.00
44765;BME280;30484;52.382;5.260;2023-02-28T03:19:19;103266.03;;;7.75;100.00
44765;BME280;30484;52.382;5.260;2023-02-28T03:22:00;103270.44;;;7.49;100.00
44765;BME280;30484;52.382;5.260;2023-02-28T03:24:40;103261.56;;;7.84;100.00
44765;BME280;30484;52.382;5.260;2023-02-28T03:27:15;103261.59;;;7.77;100.00
44765;BME280;30484;52.382;5.260;2023-02-28T03:29:47;103258.00;;;7.54;100.00
44765;BME280;30484;52.382;5.260;2023-02-28T03:32:29;103256.28;;;7.71;100.00
44765;BME280;30484;52.382;5.260;2023-02-28T03:35:07;103261.56;;;7.81;100.00
44765;BME280;30484;52.382;5.260;2023-02-28T03:37:42;103265.13;;;7.89;100.00
44765;BME280;30484;52.382;5.260;2023-02-28T03:40:15;103261.59;;;7.77;100.00
44765;BME280;30484;52.382;5.260;2023-02-28T03:42:48;103275.78;;;7.86;100.00
44765;BME280;30484;52.382;5.260;2023-02-28T03:45:21;103274.91;;;7.90;100.00
44765;BME280;30484;52.382;5.260;2023-02-28T03:47:54;103275.78;;;7.73;100.00
44765;BME280;30484;52.382;5.260;2023-02-28T03:50:25;103281.97;;;7.88;100.00
44765;BME280;30484;52.382;5.260;2023-02-28T03:53:01;103277.56;;;7.87;100.00
44765;BME280;30484;52.382;5.260;2023-02-28T03:55:33;103277.56;;;7.87;100.00
44765;BME280;30484;52.382;5.260;2023-02-28T03:58:05;103279.34;;;7.91;100.00
44765;BME280;30484;52.382;5.260;2023-02-28T04:00:37;103283.75;;;7.78;100.00
44765;BME280;30484;52.382;5.260;2023-02-28T04:03:13;103282.88;;;7.81;100.00
44765;BME280;30484;52.382;5.260;2023-02-28T04:05:48;103273.13;;;7.67;100.00
44765;BME280;30484;52.382;5.260;2023-02-28T04:08:22;103279.34;;;7.77;100.00
44765;BME280;30484;52.382;5.260;2023-02-28T04:10:56;103277.53;;;7.84;100.00
44765;BME280;30484;52.382;5.260;2023-02-28T04:13:29;103275.78;;;7.75;100.00
44765;BME280;30484;52.382;5.260;2023-02-28T04:15:58;103277.53;;;7.82;100.00
44765;BME280;30484;52.382;5.260;2023-02-28T04:18:30;103281.94;;;7.51;100.00
44765;BME280;30484;52.382;5.260;2023-02-28T04:21:00;103278.44;;;7.63;100.00
44765;BME280;30484;52.382;5.260;2023-02-28T04:23:32;103272.22;;;7.56;100.00
44765;BME280;30484;52.382;5.260;2023-02-28T04:26:01;103281.03;;;7.27;100.00
44765;BME280;30484;52.382;5.260;2023-02-28T04:28:31;103279.28;;;7.38;100.00
44765;BME280;30484;52.382;5.260;2023-02-28T04:31:02;103269.53;;;7.36;100.00
44765;BME280;30484;52.382;5.260;2023-02-28T04:33:33;103270.25;;;6.90;100.00
44765;BME280;30484;52.382;5.260;2023-02-28T04:36:04;103273.06;;;7.35;100.00
44765;BME280;30484;52.382;5.260;2023-02-28T04:38:37;103264.03;;;6.86;100.00
44765;BME280;30484;52.382;5.260;2023-02-28T04:41:11;103265.81;;;6.83;100.00
44765;BME280;30484;52.382;5.260;2023-02-28T04:43:40;103272.06;;;6.97;100.00
44765;BME280;30484;52.382;5.260;2023-02-28T04:46:09;103275.50;;;6.74;100.00
44765;BME280;30484;52.382;5.260;2023-02-28T04:48:40;103273.06;;;7.27;100.00
44765;BME280;30484;52.382;5.260;2023-02-28T04:51:14;103276.44;;;6.86;100.00
44765;BME280;30484;52.382;5.260;2023-02-28T04:54:08;103280.69;;;6.51;100.00
44765;BME280;30484;52.382;5.260;2023-02-28T04:56:53;103279.81;;;6.54;100.00
44765;BME280;30484;52.382;5.260;2023-02-28T04:59:55;103271.78;;;6.40;100.00
44765;BME280;30484;52.382;5.260;2023-02-28T05:02:40;103258.53;;;6.46;100.00
44765;BME280;30484;52.382;5.260;2023-02-28T05:05:11;103280.72;;;6.56;100.00
44765;BME280;30484;52.382;5.260;2023-02-28T05:07:47;103276.44;;;6.83;100.00
44765;BME280;30484;52.382;5.260;2023-02-28T05:10:36;103277.88;;;6.31;100.00
44765;BME280;30484;52.382;5.260;2023-02-28T05:13:06;103284.69;;;5.97;100.00
44765;BME280;30484;52.382;5.260;2023-02-28T05:15:35;103284.97;;;6.29;100.00
44765;BME280;30484;52.382;5.260;2023-02-28T05:18:08;103289.44;;;6.38;100.00
44765;BME280;30484;52.382;5.260;2023-02-28T05:20:55;103291.00;;;6.07;100.00
44765;BME280;30484;52.382;5.260;2023-02-28T05:23:39;103289.19;;;6.02;100.00
44765;BME280;30484;52.382;5.260;2023-02-28T05:47:40;103292.03;;;5.30;100.00
44765;BME280;30484;52.382;5.260;2023-02-28T05:50:13;103299.34;;;5.56;100.00
44765;BME280;30484;52.382;5.260;2023-02-28T05:52:52;103295.91;;;5.65;100.00
44765;BME280;30484;52.382;5.260;2023-02-28T05:55:35;103298.72;;;5.82;100.00
44765;BME280;30484;52.382;5.260;2023-02-28T05:58:33;103300.19;;;5.52;100.00
44765;BME280;30484;52.382;5.260;2023-02-28T06:01:32;103299.31;;;4.78;100.00
44765;BME280;30484;52.382;5.260;2023-02-28T06:04:11;103309.63;;;4.58;100.00
44765;BME280;30484;52.382;5.260;2023-02-28T06:07:00;103317.59;;;5.28;100.00
44765;BME280;30484;52.382;5.260;2023-02-28T06:09:30;103304.03;;;5.00;100.00
44765;BME280;30484;52.382;5.260;2023-02-28T06:11:58;103314.38;;;4.82;100.00
44765;BME280;30484;52.382;5.260;2023-02-28T06:14:31;103317.00;;;5.54;100.00
44765;BME280;30484;52.382;5.260;2023-02-28T06:17:01;103303.28;;;4.45;100.00
44765;BME280;30484;52.382;5.260;2023-02-28T06:19:31;103316.28;;;4.92;100.00
44765;BME280;30484;52.382;5.260;2023-02-28T06:22:00;103318.97;;;4.32;100.00
44765;BME280;30484;52.382;5.260;2023-02-28T06:24:29;103311.47;;;4.62;100.00
44765;BME280;30484;52.382;5.260;2023-02-28T06:26:59;103317.72;;;4.69;100.00
44765;BME280;30484;52.382;5.260;2023-02-28T06:29:32;103330.44;;;4.94;100.00
44765;BME280;30484;52.382;5.260;2023-02-28T06:32:01;103320.69;;;4.30;100.00
44765;BME280;30484;52.382;5.260;2023-02-28T06:34:31;103327.47;;;4.14;100.00
44765;BME280;30484;52.382;5.260;2023-02-28T06:37:00;103332.47;;;3.97;100.00
44765;BME280;30484;52.382;5.260;2023-02-28T06:39:29;103336.28;;;4.12;100.00
44765;BME280;30484;52.382;5.260;2023-02-28T06:41:57;103337.06;;;4.06;100.00
44765;BME280;30484;52.382;5.260;2023-02-28T06:44:26;103336.78;;;4.46;100.00
44765;BME280;30484;52.382;5.260;2023-02-28T06:47:03;103342.53;;;4.17;100.00
44765;BME280;30484;52.382;5.260;2023-02-28T06:49:34;103340.66;;;4.11;100.00
44765;BME280;30484;52.382;5.260;2023-02-28T06:52:03;103338.81;;;4.61;100.00
44765;BME280;30484;52.382;5.260;2023-02-28T06:54:32;103342.50;;;4.15;100.00
44765;BME280;30484;52.382;5.260;2023-02-28T06:57:00;103341.44;;;4.59;100.00
44765;BME280;30484;52.382;5.260;2023-02-28T06:59:28;103342.72;;;4.29;100.00
44765;BME280;30484;52.382;5.260;2023-02-28T07:01:57;103352.84;;;4.03;100.00
44765;BME280;30484;52.382;5.260;2023-02-28T07:04:26;103354.44;;;4.44;100.00
44765;BME280;30484;52.382;5.260;2023-02-28T07:06:56;103349.50;;;4.69;100.00
44765;BME280;30484;52.382;5.260;2023-02-28T07:09:24;103367.75;;;3.96;100.00
44765;BME280;30484;52.382;5.260;2023-02-28T07:11:57;103361.16;;;4.23;100.00
44765;BME280;30484;52.382;5.260;2023-02-28T07:14:27;103354.47;;;4.47;100.00
44765;BME280;30484;52.382;5.260;2023-02-28T07:16:55;103359.00;;;4.54;100.00
44765;BME280;30484;52.382;5.260;2023-02-28T07:19:24;103364.97;;;4.41;100.00
44765;BME280;30484;52.382;5.260;2023-02-28T07:21:52;103376.53;;;3.95;100.00
44765;BME280;30484;52.382;5.260;2023-02-28T07:24:22;103369.25;;;4.32;100.00
44765;BME280;30484;52.382;5.260;2023-02-28T07:26:55;103370.75;;;4.17;100.00
44765;BME280;30484;52.382;5.260;2023-02-28T07:29:26;103366.63;;;4.36;100.00
44765;BME280;30484;52.382;5.260;2023-02-28T07:31:54;103376.63;;;4.52;100.00
44765;BME280;30484;52.382;5.260;2023-02-28T07:34:23;103363.53;;;4.63;100.00
44765;BME280;30484;52.382;5.260;2023-02-28T07:36:53;103368.97;;;4.71;100.00
44765;BME280;30484;52.382;5.260;2023-02-28T07:39:23;103362.81;;;4.73;100.00
44765;BME280;30484;52.382;5.260;2023-02-28T07:41:51;103365.66;;;4.87;100.00
44765;BME280;30484;52.382;5.260;2023-02-28T07:44:19;103357.88;;;4.99;100.00
44765;BME280;30484;52.382;5.260;2023-02-28T07:46:48;103364.97;;;5.00;100.00
44765;BME280;30484;52.382;5.260;2023-02-28T07:49:16;103372.75;;;4.90;100.00
44765;BME280;30484;52.382;5.260;2023-02-28T07:51:44;103341.84;;;4.90;100.00
44765;BME280;30484;52.382;5.260;2023-02-28T07:54:13;103362.91;;;4.79;100.00
44765;BME280;30484;52.382;5.260;2023-02-28T07:56:45;103358.84;;;5.03;100.00
44765;BME280;30484;52.382;5.260;2023-02-28T07:59:13;103354.25;;;4.94;100.00
44765;BME280;30484;52.382;5.260;2023-02-28T08:01:42;103339.25;;;4.93;100.00
44765;BME280;30484;52.382;5.260;2023-02-28T08:04:11;103349.31;;;5.21;100.00
44765;BME280;30484;52.382;5.260;2023-02-28T08:06:40;103345.59;;;5.05;100.00
44765;BME280;30484;52.382;5.260;2023-02-28T08:09:08;103349.38;;;5.25;100.00
44765;BME280;30484;52.382;5.260;2023-02-28T08:11:37;103349.53;;;5.36;100.00
44765;BME280;30484;52.382;5.260;2023-02-28T08:14:06;103345.03;;;5.30;100.00
44765;BME280;30484;52.382;5.260;2023-02-28T08:16:35;103346.47;;;5.04;100.00
44765;BME280;30484;52.382;5.260;2023-02-28T08:19:04;103360.97;;;5.33;100.00
44765;BME280;30484;52.382;5.260;2023-02-28T08:21:32;103339.78;;;5.36;100.00
44765;BME280;30484;52.382;5.260;2023-02-28T08:24:00;103367.34;;;5.49;100.00
44765;BME280;30484;52.382;5.260;2023-02-28T08:26:29;103351.56;;;5.59;100.00
44765;BME280;30484;52.382;5.260;2023-02-28T08:28:58;103355.13;;;5.64;100.00
44765;BME280;30484;52.382;5.260;2023-02-28T08:31:29;103356.94;;;5.68;100.00
44765;BME280;30484;52.382;5.260;2023-02-28T08:33:58;103359.72;;;5.79;100.00
44765;BME280;30484;52.382;5.260;2023-02-28T08:36:26;103360.66;;;5.87;100.00
44765;BME280;30484;52.382;5.260;2023-02-28T08:38:56;103354.63;;;5.97;100.00
44765;BME280;30484;52.382;5.260;2023-02-28T08:41:25;103353.75;;;6.00;100.00
44765;BME280;30484;52.382;5.260;2023-02-28T08:43:54;103356.44;;;6.03;100.00
44765;BME280;30484;52.382;5.260;2023-02-28T08:46:23;103355.66;;;6.13;100.00
44765;BME280;30484;52.382;5.260;2023-02-28T08:48:53;103360.09;;;6.17;100.00
44765;BME280;30484;52.382;5.260;2023-02-28T08:51:22;103349.22;;;5.94;100.00
44765;BME280;30484;52.382;5.260;2023-02-28T08:53:55;103359.28;;;6.26;100.00
44765;BME280;30484;52.382;5.260;2023-02-28T08:56:24;103355.69;;;6.18;100.00
44765;BME280;30484;52.382;5.260;2023-02-28T08:58:55;103363.00;;;6.48;100.00
44765;BME280;30484;52.382;5.260;2023-02-28T09:01:26;103365.59;;;6.37;100.00
44765;BME280;30484;52.382;5.260;2023-02-28T09:03:57;103364.78;;;6.49;100.00
44765;BME280;30484;52.382;5.260;2023-02-28T09:06:26;103366.28;;;6.18;100.00
44765;BME280;30484;52.382;5.260;2023-02-28T09:08:56;103373.41;;;6.22;100.00
44765;BME280;30484;52.382;5.260;2023-02-28T09:11:26;103390.53;;;6.61;100.00
44765;BME280;30484;52.382;5.260;2023-02-28T09:13:55;103370.31;;;6.83;100.00
44765;BME280;30484;52.382;5.260;2023-02-28T09:16:24;103385.06;;;6.39;100.00
44765;BME280;30484;52.382;5.260;2023-02-28T09:18:52;103379.06;;;6.67;100.00
44765;BME280;30484;52.382;5.260;2023-02-28T09:21:22;103388.19;;;7.06;100.00
44765;BME280;30484;52.382;5.260;2023-02-28T09:23:52;103376.47;;;6.74;100.00
44765;BME280;30484;52.382;5.260;2023-02-28T09:26:22;103376.44;;;6.68;100.00
44765;BME280;30484;52.382;5.260;2023-02-28T09:28:52;103384.88;;;6.18;100.00
44765;BME280;30484;52.382;5.260;2023-02-28T09:31:23;103378.75;;;6.27;100.00
44765;BME280;30484;52.382;5.260;2023-02-28T09:33:54;103384.34;;;6.62;100.00
44765;BME280;30484;52.382;5.260;2023-02-28T09:36:26;103375.84;;;7.25;100.00
44765;BME280;30484;52.382;5.260;2023-02-28T09:39:10;103378.47;;;7.16;100.00
44765;BME280;30484;52.382;5.260;2023-02-28T09:41:41;103374.88;;;7.04;100.00
44765;BME280;30484;52.382;5.260;2023-02-28T09:44:24;103378.50;;;7.28;100.00
44765;BME280;30484;52.382;5.260;2023-02-28T09:46:57;103385.75;;;7.69;100.00
44765;BME280;30484;52.382;5.260;2023-02-28T09:49:33;103379.44;;;7.30;100.00
44765;BME280;30484;52.382;5.260;2023-02-28T09:52:07;103382.16;;;7.58;100.00
44765;BME280;30484;52.382;5.260;2023-02-28T09:54:37;103383.91;;;7.43;100.00
44765;BME280;30484;52.382;5.260;2023-02-28T09:57:09;103375.91;;;7.42;100.00
44765;BME280;30484;52.382;5.260;2023-02-28T09:59:50;103382.94;;;7.18;100.00
44765;BME280;30484;52.382;5.260;2023-02-28T10:02:42;103369.81;;;7.83;100.00
44765;BME280;30484;52.382;5.260;2023-02-28T10:05:15;103375.91;;;7.43;100.00
44765;BME280;30484;52.382;5.260;2023-02-28T10:07:53;103375.06;;;7.48;100.00
44765;BME280;30484;52.382;5.260;2023-02-28T10:10:32;103371.22;;;6.85;100.00
44765;BME280;30484;52.382;5.260;2023-02-28T10:13:05;103369.50;;;6.97;100.00
44765;BME280;30484;52.382;5.260;2023-02-28T10:15:36;103377.38;;;6.80;100.00
44765;BME280;30484;52.382;5.260;2023-02-28T10:18:06;103382.22;;;7.67;100.00
44765;BME280;30484;52.382;5.260;2023-02-28T10:20:40;103387.22;;;6.95;100.00
44765;BME280;30484;52.382;5.260;2023-02-28T10:23:13;103388.09;;;6.90;100.00
44765;BME280;30484;52.382;5.260;2023-02-28T10:25:45;103380.88;;;6.72;100.00
44765;BME280;30484;52.382;5.260;2023-02-28T10:28:16;103381.16;;;7.22;100.00
44765;BME280;30484;52.382;5.260;2023-02-28T10:30:47;103377.72;;;7.54;100.00
44765;BME280;30484;52.382;5.260;2023-02-28T10:33:22;103382.16;;;7.49;100.00
44765;BME280;30484;52.382;5.260;2023-02-28T10:35:52;103381.34;;;7.71;100.00
44765;BME280;30484;52.382;5.260;2023-02-28T10:38:23;103376.81;;;7.42;100.00
44765;BME280;30484;52.382;5.260;2023-02-28T10:40:52;103368.97;;;8.32;100.00
44765;BME280;30484;52.382;5.260;2023-02-28T10:43:31;103375.19;;;8.12;100.00
44765;BME280;30484;52.382;5.260;2023-02-28T10:46:02;103373.44;;;8.27;100.00
44765;BME280;30484;52.382;5.260;2023-02-28T10:48:36;103367.13;;;7.71;100.00
44765;BME280;30484;52.382;5.260;2023-02-28T10:51:06;103359.19;;;8.06;100.00
44765;BME280;30484;52.382;5.260;2023-02-28T10:53:39;103361.84;;;8.79;100.00
44765;BME280;30484;52.382;5.260;2023-02-28T10:56:28;103355.59;;;8.92;100.00
44765;BME280;30484;52.382;5.260;2023-02-28T10:58:59;103357.38;;;8.92;100.00
44765;BME280;30484;52.382;5.260;2023-02-28T11:01:36;103355.63;;;8.91;100.00
44765;BME280;30484;52.382;5.260;2023-02-28T11:04:16;103345.88;;;8.42;100.00
44765;BME280;30484;52.382;5.260;2023-02-28T11:06:47;103353.81;;;8.96;100.00
44765;BME280;30484;52.382;5.260;2023-02-28T11:09:21;103341.44;;;8.70;100.00
44765;BME280;30484;52.382;5.260;2023-02-28T11:11:51;103339.41;;;9.37;100.00
44765;BME280;30484;52.382;5.260;2023-02-28T11:14:22;103339.13;;;9.80;100.00
44765;BME280;30484;52.382;5.260;2023-02-28T11:16:57;103343.28;;;10.20;100.00
44765;BME280;30484;52.382;5.260;2023-02-28T11:19:28;103337.47;;;9.67;100.00
44765;BME280;30484;52.382;5.260;2023-02-28T11:22:00;103339.47;;;9.22;100.00
44765;BME280;30484;52.382;5.260;2023-02-28T11:24:33;103326.78;;;9.67;100.00
44765;BME280;30484;52.382;5.260;2023-02-28T11:27:03;103335.28;;;10.18;100.00
44765;BME280;30484;52.382;5.260;2023-02-28T11:29:32;103326.28;;;10.35;100.00
44765;BME280;30484;52.382;5.260;2023-02-28T11:32:04;103320.19;;;11.01;100.00
44765;BME280;30484;52.382;5.260;2023-02-28T11:34:36;103321.34;;;11.50;100.00
44765;BME280;30484;52.382;5.260;2023-02-28T11:37:08;103315.59;;;11.77;100.00
44765;BME280;30484;52.382;5.260;2023-02-28T11:39:56;103310.06;;;11.87;100.00
44765;BME280;30484;52.382;5.260;2023-02-28T11:42:49;103311.00;;;12.85;100.00
44765;BME280;30484;52.382;5.260;2023-02-28T11:45:32;103307.03;;;12.60;100.00
44765;BME280;30484;52.382;5.260;2023-02-28T11:48:09;103306.19;;;12.58;100.00
44765;BME280;30484;52.382;5.260;2023-02-28T11:51:05;103304.66;;;11.90;100.00
44765;BME280;30484;52.382;5.260;2023-02-28T11:54:09;103302.53;;;12.13;100.00
44765;BME280;30484;52.382;5.260;2023-02-28T11:56:47;103308.91;;;12.55;100.00
44765;BME280;30484;52.382;5.260;2023-02-28T11:59:32;103297.03;;;12.20;100.00
44765;BME280;30484;52.382;5.260;2023-02-28T12:02:14;103299.34;;;12.40;100.00
44765;BME280;30484;52.382;5.260;2023-02-28T12:04:52;103295.28;;;12.66;100.00
44765;BME280;30484;52.382;5.260;2023-02-28T12:07:28;103298.31;;;12.48;100.00
44765;BME280;30484;52.382;5.260;2023-02-28T12:10:03;103295.34;;;12.63;100.00
44765;BME280;30484;52.382;5.260;2023-02-28T12:12:42;103281.00;;;12.66;100.00
44765;BME280;30484;52.382;5.260;2023-02-28T12:15:36;103281.97;;;12.15;96.95
44765;BME280;30484;52.382;5.260;2023-02-28T12:18:18;103288.50;;;12.47;100.00
44765;BME280;30484;52.382;5.260;2023-02-28T12:20:54;103282.94;;;12.09;100.00
44765;BME280;30484;52.382;5.260;2023-02-28T12:23:43;103285.69;;;12.54;94.84
44765;BME280;30484;52.382;5.260;2023-02-28T12:26:16;103281.31;;;12.50;100.00
44765;BME280;30484;52.382;5.260;2023-02-28T12:28:51;103287.44;;;12.55;100.00
44765;BME280;30484;52.382;5.260;2023-02-28T12:31:23;103275.72;;;12.61;93.97
44765;BME280;30484;52.382;5.260;2023-02-28T12:33:53;103273.50;;;11.85;100.00
44765;BME280;30484;52.382;5.260;2023-02-28T12:36:23;103273.31;;;12.47;100.00
44765;BME280;30484;52.382;5.260;2023-02-28T12:38:54;103277.66;;;12.06;92.02
44765;BME280;30484;52.382;5.260;2023-02-28T12:41:29;103264.31;;;12.51;100.00
44765;BME280;30484;52.382;5.260;2023-02-28T12:44:06;103275.16;;;12.43;95.66
44765;BME280;30484;52.382;5.260;2023-02-28T12:46:38;103264.09;;;10.97;80.44
44765;BME280;30484;52.382;5.260;2023-02-28T12:49:15;103271.69;;;11.29;88.38
44765;BME280;30484;52.382;5.260;2023-02-28T12:51:45;103268.44;;;11.66;94.17
44765;BME280;30484;52.382;5.260;2023-02-28T12:54:20;103258.88;;;12.54;92.53
44765;BME280;30484;52.382;5.260;2023-02-28T12:56:55;103262.06;;;12.26;90.47
44765;BME280;30484;52.382;5.260;2023-02-28T12:59:32;103258.91;;;12.53;83.42
44765;BME280;30484;52.382;5.260;2023-02-28T13:02:42;103254.97;;;11.71;84.11
44765;BME280;30484;52.382;5.260;2023-02-28T13:05:39;103262.03;;;12.75;85.68
44765;BME280;30484;52.382;5.260;2023-02-28T13:08:27;103257.03;;;12.09;70.73
44765;BME280;30484;52.382;5.260;2023-02-28T13:11:06;103258.38;;;12.34;79.77
44765;BME280;30484;52.382;5.260;2023-02-28T13:13:47;103258.63;;;12.67;79.61
44765;BME280;30484;52.382;5.260;2023-02-28T13:16:17;103251.13;;;12.84;78.32
44765;BME280;30484;52.382;5.260;2023-02-28T13:18:46;103251.06;;;12.87;70.35
44765;BME280;30484;52.382;5.260;2023-02-28T13:21:22;103247.69;;;13.17;76.73
44765;BME280;30484;52.382;5.260;2023-02-28T13:24:00;103249.41;;;13.21;83.08
44765;BME280;30484;52.382;5.260;2023-02-28T13:29:32;103242.13;;;12.85;100.00
44765;BME280;30484;52.382;5.260;2023-02-28T13:32:34;103241.28;;;13.25;100.00
44765;BME280;30484;52.382;5.260;2023-02-28T13:35:43;103245.78;;;13.61;100.00
44765;BME280;30484;52.382;5.260;2023-02-28T13:38:37;103241.94;;;13.34;100.00
44765;BME280;30484;52.382;5.260;2023-02-28T13:44:25;103235.41;;;13.47;100.00
44765;BME280;30484;52.382;5.260;2023-02-28T13:47:20;103227.13;;;13.17;100.00
44765;BME280;30484;52.382;5.260;2023-02-28T13:49:51;103218.19;;;11.82;100.00
44765;BME280;30484;52.382;5.260;2023-02-28T13:52:22;103228.13;;;12.71;100.00
44765;BME280;30484;52.382;5.260;2023-02-28T13:55:13;103226.31;;;13.13;100.00
44765;BME280;30484;52.382;5.260;2023-02-28T14:00:42;103229.88;;;12.73;100.00